createdAt,value
2018-08-03T00:00:47.324Z,67.91
2018-08-03T00:01:47.292Z,67.52
2018-08-03T00:02:47.252Z,68.20
2018-08-03T00:03:47.209Z,68.30
2018-08-03T00:04:47.177Z,68.59
2018-08-03T00:05:47.136Z,68.20
2018-08-03T00:06:47.105Z,68.30
2018-08-03T00:07:47.057Z,68.01
2018-08-03T00:08:47.017Z,68.59
2018-08-03T00:09:46.980Z,67.91
2018-08-03T00:10:46.941Z,68.30
2018-08-03T00:11:46.909Z,68.78
2018-08-03T00:12:46.863Z,68.78
2018-08-03T00:13:46.825Z,68.78
2018-08-03T00:14:46.786Z,69.07
2018-08-03T00:15:46.749Z,69.07
2018-08-03T00:16:46.712Z,69.62
2018-08-03T00:17:46.676Z,68.75
2018-08-03T00:18:46.635Z,69.62
2018-08-03T00:19:46.594Z,69.71
2018-08-03T00:20:46.553Z,69.52
2018-08-03T00:21:46.519Z,69.13
2018-08-03T00:22:46.477Z,69.42
2018-08-03T00:23:46.447Z,70.10
2018-08-03T00:24:46.402Z,70.20
2018-08-03T00:25:46.368Z,70.48
2018-08-03T00:26:46.330Z,70.20
2018-08-03T00:27:46.287Z,71.06
2018-08-03T00:28:46.249Z,70.58
2018-08-03T00:29:46.208Z,70.78
2018-08-03T00:30:46.168Z,70.87
2018-08-03T00:31:46.133Z,70.84
2018-08-03T00:32:46.090Z,71.16
2018-08-03T00:33:46.061Z,70.84
2018-08-03T00:34:46.014Z,71.16
2018-08-03T00:35:45.975Z,70.84
2018-08-03T00:36:45.939Z,71.03
2018-08-03T00:37:45.897Z,70.84
2018-08-03T00:38:45.863Z,70.94
2018-08-03T00:39:45.822Z,71.42
2018-08-03T00:40:45.783Z,71.42
2018-08-03T00:41:45.743Z,71.61
2018-08-03T00:42:45.702Z,72.19
2018-08-03T00:43:45.669Z,72.28
2018-08-03T00:44:45.626Z,72.09
2018-08-03T00:45:45.590Z,72.77
2018-08-03T00:46:45.552Z,72.96
2018-08-03T00:47:45.512Z,72.86
2018-08-03T00:48:45.472Z,72.67
2018-08-03T00:49:45.434Z,73.35
2018-08-03T00:50:45.393Z,73.15
2018-08-03T00:51:45.358Z,72.96
2018-08-03T00:52:45.315Z,73.02
2018-08-03T00:53:45.278Z,73.21
2018-08-03T00:54:45.238Z,73.02
2018-08-03T00:55:45.201Z,73.31
2018-08-03T00:56:45.161Z,73.50
2018-08-03T00:57:45.120Z,73.79
2018-08-03T00:58:45.083Z,74.08
2018-08-03T00:59:45.041Z,74.08
2018-08-03T01:00:45.011Z,74.27
2018-08-03T01:01:44.967Z,74.37
2018-08-03T01:02:44.935Z,74.08
2018-08-03T01:03:44.885Z,74.76
2018-08-03T01:04:44.851Z,74.37
2018-08-03T01:05:44.810Z,74.76
2018-08-03T01:06:44.771Z,74.66
2018-08-03T01:07:44.732Z,74.76
2018-08-03T01:08:44.690Z,74.47
2018-08-03T01:09:44.653Z,74.57
2018-08-03T01:10:44.612Z,74.72
2018-08-03T01:11:44.573Z,74.85
2018-08-03T01:12:44.542Z,74.43
2018-08-03T01:13:44.498Z,75.59
2018-08-03T01:14:44.457Z,75.49
2018-08-03T01:15:44.424Z,75.49
2018-08-03T01:16:44.378Z,75.40
2018-08-03T01:17:44.342Z,75.49
2018-08-03T01:18:44.303Z,75.78
2018-08-03T01:19:44.261Z,76.17
2018-08-03T01:20:44.224Z,76.36
2018-08-03T01:21:44.184Z,76.93
2018-08-03T01:22:44.149Z,76.65
2018-08-03T01:23:44.106Z,77.23
2018-08-03T01:24:44.066Z,77.23
2018-08-03T01:25:44.028Z,77.23
2018-08-03T01:26:43.988Z,77.51
2018-08-03T01:27:43.947Z,77.61
2018-08-03T01:28:43.908Z,76.84
2018-08-03T01:29:43.869Z,77.13
2018-08-03T01:30:43.830Z,77.13
2018-08-03T01:31:43.793Z,77.13
2018-08-03T01:32:43.748Z,77.03
2018-08-03T01:33:43.711Z,77.38
2018-08-03T01:34:43.673Z,77.38
2018-08-03T01:35:43.637Z,77.61
2018-08-03T01:36:43.597Z,76.93
2018-08-03T01:37:43.582Z,77.09
2018-08-03T01:38:43.514Z,77.00
2018-08-03T01:39:43.476Z,77.19
2018-08-03T01:40:43.442Z,76.71
2018-08-03T01:41:43.397Z,76.32
2018-08-03T01:42:43.358Z,77.09
2018-08-03T01:43:43.318Z,77.19
2018-08-03T01:44:43.284Z,77.58
2018-08-03T01:45:43.240Z,77.58
2018-08-03T01:46:43.199Z,77.76
2018-08-03T01:47:43.162Z,77.48
2018-08-03T01:48:43.124Z,77.09
2018-08-03T01:49:43.085Z,77.58
2018-08-03T01:50:43.040Z,77.58
2018-08-03T01:51:43.005Z,77.86
2018-08-03T01:52:42.963Z,77.86
2018-08-03T01:53:42.924Z,77.28
2018-08-03T01:54:42.883Z,77.28
2018-08-03T01:55:42.842Z,77.09
2018-08-03T01:56:42.808Z,77.58
2018-08-03T01:57:42.767Z,77.76
2018-08-03T01:58:42.726Z,77.67
2018-08-03T01:59:42.687Z,78.83
2018-08-03T02:00:42.648Z,78.54
2018-08-03T02:01:42.607Z,78.54
2018-08-03T02:02:42.571Z,78.63
2018-08-03T02:03:42.533Z,77.96
2018-08-03T02:04:42.496Z,78.06
2018-08-03T02:05:42.456Z,78.21
2018-08-03T02:06:42.408Z,77.96
2018-08-03T02:07:42.372Z,77.92
2018-08-03T02:08:42.331Z,78.79
2018-08-03T02:09:42.293Z,78.59
2018-08-03T02:10:42.250Z,78.98
2018-08-03T02:11:42.210Z,78.69
2018-08-03T02:12:42.172Z,78.88
2018-08-03T02:13:42.135Z,78.50
2018-08-03T02:14:42.099Z,79.46
2018-08-03T02:15:42.055Z,79.66
2018-08-03T02:16:42.021Z,79.56
2018-08-03T02:17:41.975Z,79.27
2018-08-03T02:18:41.935Z,79.56
2018-08-03T02:19:41.899Z,79.94
2018-08-03T02:20:41.861Z,79.85
2018-08-03T02:21:41.817Z,80.04
2018-08-03T02:22:41.779Z,80.23
2018-08-03T02:23:41.744Z,80.71
2018-08-03T02:24:41.699Z,80.43
2018-08-03T02:25:41.659Z,80.62
2018-08-03T02:26:41.616Z,80.43
2018-08-03T02:27:41.585Z,80.62
2018-08-03T02:28:41.539Z,80.33
2018-08-03T02:29:41.499Z,80.14
2018-08-03T02:30:41.459Z,81.10
2018-08-03T02:31:41.423Z,81.29
2018-08-03T02:32:41.393Z,81.01
2018-08-03T02:33:41.343Z,81.29
2018-08-03T02:34:41.310Z,81.83
2018-08-03T02:35:41.261Z,81.54
2018-08-03T02:36:41.225Z,81.83
2018-08-03T02:37:41.183Z,81.73
2018-08-03T02:38:41.140Z,81.73
2018-08-03T02:39:41.103Z,81.54
2018-08-03T02:40:41.064Z,81.83
2018-08-03T02:41:41.021Z,81.83
2018-08-03T02:42:40.985Z,82.12
2018-08-03T02:43:40.943Z,82.31
2018-08-03T02:44:40.902Z,81.63
2018-08-03T02:45:40.864Z,82.12
2018-08-03T02:46:40.829Z,82.41
2018-08-03T02:47:40.784Z,81.73
2018-08-03T02:48:40.746Z,82.02
2018-08-03T02:49:40.705Z,81.73
2018-08-03T02:50:40.669Z,82.31
2018-08-03T02:51:40.628Z,81.63
2018-08-03T02:52:40.586Z,82.60
2018-08-03T02:53:40.543Z,82.31
2018-08-03T02:54:40.532Z,82.31
2018-08-03T02:55:40.468Z,82.31
2018-08-03T02:56:40.423Z,82.31
2018-08-03T02:57:40.386Z,82.50
2018-08-03T02:58:40.342Z,82.31
2018-08-03T02:59:40.305Z,82.60
2018-08-03T03:00:40.264Z,82.60
2018-08-03T03:01:40.225Z,82.50
2018-08-03T03:02:40.184Z,82.50
2018-08-03T03:03:40.144Z,82.50
2018-08-03T03:04:40.106Z,82.60
2018-08-03T03:05:40.066Z,83.04
2018-08-03T03:06:40.029Z,82.98
2018-08-03T03:07:39.985Z,83.04
2018-08-03T03:08:39.944Z,83.37
2018-08-03T03:09:39.905Z,83.66
2018-08-03T03:10:39.866Z,83.85
2018-08-03T03:11:39.829Z,83.75
2018-08-03T03:12:39.790Z,83.75
2018-08-03T03:13:39.745Z,84.19
2018-08-03T03:14:39.707Z,84.19
2018-08-03T03:15:39.666Z,83.81
2018-08-03T03:16:39.626Z,83.72
2018-08-03T03:17:39.585Z,83.81
2018-08-03T03:18:39.544Z,84.19
2018-08-03T03:19:39.556Z,84.19
2018-08-03T03:20:39.468Z,84.10
2018-08-03T03:21:39.428Z,84.19
2018-08-03T03:22:39.384Z,84.29
2018-08-03T03:23:39.345Z,84.29
2018-08-03T03:24:39.307Z,84.19
2018-08-03T03:25:39.265Z,84.19
2018-08-03T03:26:39.226Z,84.10
2018-08-03T03:27:39.190Z,84.58
2018-08-03T03:28:39.144Z,84.67
2018-08-03T03:29:39.104Z,84.67
2018-08-03T03:30:39.066Z,84.97
2018-08-03T03:31:39.028Z,84.97
2018-08-03T03:32:39.063Z,85.25
2018-08-03T03:33:38.945Z,85.35
2018-08-03T03:34:38.906Z,84.77
2018-08-03T03:35:38.865Z,84.97
2018-08-03T03:36:38.823Z,85.25
2018-08-03T03:37:38.787Z,85.44
2018-08-03T03:38:38.743Z,85.44
2018-08-03T03:39:38.706Z,84.77
2018-08-03T03:40:38.670Z,85.25
2018-08-03T03:41:38.623Z,85.25
2018-08-03T03:42:38.582Z,85.54
2018-08-03T03:43:38.542Z,85.74
2018-08-03T03:44:38.508Z,85.74
2018-08-03T03:45:38.523Z,85.74
2018-08-03T03:46:38.430Z,85.74
2018-08-03T03:47:38.382Z,85.93
2018-08-03T03:48:38.345Z,85.64
2018-08-03T03:49:38.303Z,85.74
2018-08-03T03:50:38.266Z,85.74
2018-08-03T03:51:38.225Z,85.64
2018-08-03T03:52:38.184Z,85.93
2018-08-03T03:53:38.147Z,85.64
2018-08-03T03:54:38.100Z,85.64
2018-08-03T03:55:38.063Z,85.64
2018-08-03T03:56:38.021Z,85.64
2018-08-03T03:57:37.983Z,85.74
2018-08-03T03:58:37.942Z,85.64
2018-08-03T03:59:37.903Z,85.74
2018-08-03T04:00:37.864Z,85.83
2018-08-03T04:01:37.824Z,86.02
2018-08-03T04:02:37.781Z,85.54
2018-08-03T04:03:37.742Z,85.74
2018-08-03T04:04:37.700Z,85.54
2018-08-03T04:05:37.666Z,85.83
2018-08-03T04:06:37.620Z,85.93
2018-08-03T04:07:37.581Z,86.41
2018-08-03T04:08:37.543Z,86.41
2018-08-03T04:09:37.501Z,86.51
2018-08-03T04:10:37.459Z,86.22
2018-08-03T04:11:37.425Z,85.74
2018-08-03T04:12:37.381Z,86.31
2018-08-03T04:13:37.342Z,86.60
2018-08-03T04:14:37.300Z,86.22
2018-08-03T04:15:37.259Z,86.79
2018-08-03T04:16:37.224Z,86.79
2018-08-03T04:17:37.180Z,86.89
2018-08-03T04:18:37.138Z,86.89
2018-08-03T04:19:37.099Z,86.79
2018-08-03T04:20:37.060Z,87.46
2018-08-03T04:21:37.017Z,87.56
2018-08-03T04:22:36.980Z,87.46
2018-08-03T04:23:36.942Z,86.89
2018-08-03T04:24:36.899Z,87.56
2018-08-03T04:25:36.890Z,87.27
2018-08-03T04:26:36.821Z,87.18
2018-08-03T04:27:36.779Z,87.56
2018-08-03T04:28:36.737Z,87.46
2018-08-03T04:29:36.701Z,87.37
2018-08-03T04:30:36.659Z,87.37
2018-08-03T04:31:36.615Z,87.33
2018-08-03T04:32:36.575Z,87.56
2018-08-03T04:33:36.539Z,87.52
2018-08-03T04:34:36.498Z,87.37
2018-08-03T04:35:36.455Z,87.66
2018-08-03T04:36:36.414Z,87.52
2018-08-03T04:37:36.377Z,88.14
2018-08-03T04:38:36.370Z,87.85
2018-08-03T04:39:36.296Z,87.76
2018-08-03T04:40:36.264Z,87.46
2018-08-03T04:41:36.218Z,87.37
2018-08-03T04:42:36.201Z,87.37
2018-08-03T04:43:36.144Z,87.46
2018-08-03T04:44:36.098Z,87.95
2018-08-03T04:45:36.056Z,88.53
2018-08-03T04:46:36.016Z,88.33
2018-08-03T04:47:35.976Z,88.04
2018-08-03T04:48:35.972Z,87.27
2018-08-03T04:49:35.893Z,87.18
2018-08-03T04:50:35.852Z,87.37
2018-08-03T04:51:35.812Z,87.18
2018-08-03T04:52:35.771Z,87.56
2018-08-03T04:53:35.733Z,87.56
2018-08-03T04:54:35.725Z,87.66
2018-08-03T04:55:35.652Z,87.27
2018-08-03T04:56:35.612Z,88.04
2018-08-03T04:57:35.573Z,87.56
2018-08-03T04:58:35.531Z,87.46
2018-08-03T04:59:35.492Z,87.56
2018-08-03T05:00:35.455Z,87.66
2018-08-03T05:01:35.410Z,87.46
2018-08-03T05:02:35.369Z,87.76
2018-08-03T05:03:35.332Z,87.08
2018-08-03T05:04:35.297Z,87.18
2018-08-03T05:05:35.260Z,87.46
2018-08-03T05:06:35.208Z,87.46
2018-08-03T05:07:35.171Z,87.37
2018-08-03T05:08:35.131Z,87.08
2018-08-03T05:09:35.090Z,87.08
2018-08-03T05:10:35.050Z,87.60
2018-08-03T05:11:35.023Z,87.22
2018-08-03T05:12:34.972Z,87.37
2018-08-03T05:13:34.930Z,87.32
2018-08-03T05:14:34.893Z,87.60
2018-08-03T05:15:34.921Z,87.22
2018-08-03T05:16:34.809Z,86.55
2018-08-03T05:17:34.771Z,86.74
2018-08-03T05:18:34.728Z,86.45
2018-08-03T05:19:34.688Z,86.65
2018-08-03T05:20:34.650Z,86.93
2018-08-03T05:21:34.612Z,86.55
2018-08-03T05:22:34.571Z,86.45
2018-08-03T05:23:34.530Z,86.35
2018-08-03T05:24:34.488Z,86.45
2018-08-03T05:25:34.450Z,85.39
2018-08-03T05:26:34.408Z,85.82
2018-08-03T05:27:34.369Z,86.11
2018-08-03T05:28:34.330Z,85.34
2018-08-03T05:29:34.292Z,85.24
2018-08-03T05:30:34.249Z,85.14
2018-08-03T05:31:34.209Z,85.14
2018-08-03T05:32:34.177Z,84.56
2018-08-03T05:33:34.133Z,84.66
2018-08-03T05:34:34.089Z,84.09
2018-08-03T05:35:34.133Z,83.99
2018-08-03T05:36:34.010Z,84.09
2018-08-03T05:37:33.985Z,83.61
2018-08-03T05:38:33.930Z,83.80
2018-08-03T05:39:33.890Z,83.70
2018-08-03T05:40:33.856Z,83.70
2018-08-03T05:41:33.811Z,83.64
2018-08-03T05:42:33.795Z,83.55
2018-08-03T05:43:33.733Z,83.16
2018-08-03T05:44:33.694Z,83.07
2018-08-03T05:45:33.717Z,82.97
2018-08-03T05:46:33.612Z,82.78
2018-08-03T05:47:33.575Z,82.59
2018-08-03T05:48:33.532Z,82.20
2018-08-03T05:49:33.494Z,81.72
2018-08-03T05:50:33.455Z,82.20
2018-08-03T05:51:33.417Z,81.72
2018-08-03T05:52:33.378Z,81.62
2018-08-03T05:53:33.363Z,81.66
2018-08-03T05:54:33.307Z,81.57
2018-08-03T05:55:33.256Z,81.18
2018-08-03T05:56:33.220Z,81.57
2018-08-03T05:57:33.180Z,80.99
2018-08-03T05:58:33.139Z,81.09
2018-08-03T05:59:33.099Z,80.31
2018-08-03T06:00:33.059Z,80.41
2018-08-03T06:01:33.024Z,79.93
2018-08-03T06:02:32.989Z,80.31
2018-08-03T06:03:32.941Z,79.44
2018-08-03T06:04:32.901Z,78.42
2018-08-03T06:05:32.866Z,78.91
2018-08-03T06:06:32.822Z,78.61
2018-08-03T06:07:32.786Z,79.58
2018-08-03T06:08:32.743Z,79.00
2018-08-03T06:09:32.750Z,79.19
2018-08-03T06:10:32.666Z,78.03
2018-08-03T06:11:32.627Z,78.52
2018-08-03T06:12:32.591Z,79.77
2018-08-03T06:13:32.548Z,78.91
2018-08-03T06:14:32.509Z,78.36
2018-08-03T06:15:32.471Z,78.17
2018-08-03T06:16:32.433Z,78.56
2018-08-03T06:17:32.395Z,77.98
2018-08-03T06:18:32.358Z,77.21
2018-08-03T06:19:32.319Z,77.01
2018-08-03T06:20:32.305Z,77.40
2018-08-03T06:21:32.236Z,77.25
2018-08-03T06:22:32.197Z,77.44
2018-08-03T06:23:32.158Z,77.15
2018-08-03T06:24:32.118Z,76.37
2018-08-03T06:25:32.084Z,76.37
2018-08-03T06:26:32.042Z,76.47
2018-08-03T06:27:32.004Z,75.89
2018-08-03T06:28:32.021Z,76.18
2018-08-03T06:29:31.972Z,76.37
2018-08-03T06:30:31.888Z,75.89
2018-08-03T06:31:31.848Z,76.09
2018-08-03T06:32:31.809Z,75.45
2018-08-03T06:33:31.774Z,75.06
2018-08-03T06:34:31.728Z,74.96
2018-08-03T06:35:31.699Z,75.35
2018-08-03T06:36:31.654Z,75.64
2018-08-03T06:37:31.612Z,75.45
2018-08-03T06:38:31.581Z,74.58
2018-08-03T06:39:31.538Z,73.22
2018-08-03T06:40:31.499Z,72.94
2018-08-03T06:41:31.469Z,72.97
2018-08-03T06:42:31.422Z,73.16
2018-08-03T06:43:31.380Z,73.84
2018-08-03T06:44:31.366Z,73.07
2018-08-03T06:45:31.305Z,73.16
2018-08-03T06:46:31.265Z,73.07
2018-08-03T06:47:31.229Z,73.07
2018-08-03T06:48:31.257Z,73.74
2018-08-03T06:49:31.152Z,73.30
2018-08-03T06:50:31.112Z,73.30
2018-08-03T06:51:31.074Z,72.81
2018-08-03T06:52:31.036Z,72.72
2018-08-03T06:53:31.000Z,72.62
2018-08-03T06:54:30.959Z,73.10
2018-08-03T06:55:30.920Z,72.24
2018-08-03T06:56:30.886Z,71.66
2018-08-03T06:57:30.901Z,71.17
2018-08-03T06:58:30.808Z,71.40
2018-08-03T06:59:30.779Z,71.78
2018-08-03T07:00:30.730Z,72.27
2018-08-03T07:01:30.692Z,71.78
2018-08-03T07:02:30.652Z,70.82
2018-08-03T07:03:30.616Z,71.40
2018-08-03T07:04:30.602Z,70.62
2018-08-03T07:05:30.543Z,70.62
2018-08-03T07:06:30.500Z,70.08
2018-08-03T07:07:30.462Z,69.66
2018-08-03T07:08:30.479Z,69.59
2018-08-03T07:09:30.389Z,69.31
2018-08-03T07:10:30.348Z,70.66
2018-08-03T07:11:30.312Z,70.18
2018-08-03T07:12:30.274Z,70.27
2018-08-03T07:13:30.236Z,68.95
2018-08-03T07:14:30.238Z,68.66
2018-08-03T07:15:30.160Z,68.56
2018-08-03T07:16:30.121Z,68.66
2018-08-03T07:17:30.083Z,67.88
2018-08-03T07:18:30.045Z,67.40
2018-08-03T07:19:30.010Z,67.50
2018-08-03T07:20:30.126Z,67.50
2018-08-03T07:21:29.933Z,67.30
2018-08-03T07:22:29.894Z,67.50
2018-08-03T07:23:29.860Z,67.44
2018-08-03T07:24:29.824Z,67.24
2018-08-03T07:25:29.790Z,67.53
2018-08-03T07:26:29.740Z,67.72
2018-08-03T07:27:29.706Z,67.63
2018-08-03T07:28:29.667Z,67.05
2018-08-03T07:29:29.633Z,66.95
2018-08-03T07:30:29.593Z,66.95
2018-08-03T07:31:29.584Z,67.66
2018-08-03T07:32:29.519Z,67.27
2018-08-03T07:33:29.483Z,66.20
2018-08-03T07:34:29.446Z,65.92
2018-08-03T07:35:29.405Z,66.30
2018-08-03T07:36:29.368Z,66.20
2018-08-03T07:37:29.334Z,66.40
2018-08-03T07:38:29.292Z,65.82
2018-08-03T07:39:29.258Z,65.75
2018-08-03T07:40:29.218Z,66.05
2018-08-03T07:41:29.184Z,66.63
2018-08-03T07:42:29.143Z,66.63
2018-08-03T07:43:29.196Z,67.21
2018-08-03T07:44:29.071Z,65.56
2018-08-03T07:45:29.037Z,66.08
2018-08-03T07:46:29.000Z,64.72
2018-08-03T07:47:28.961Z,66.17
2018-08-03T07:48:28.924Z,64.53
2018-08-03T07:49:28.886Z,64.04
2018-08-03T07:50:28.847Z,64.23
2018-08-03T07:51:28.813Z,64.95
2018-08-03T07:52:28.792Z,64.17
2018-08-03T07:53:28.738Z,64.17
2018-08-03T07:54:28.698Z,63.68
2018-08-03T07:55:28.663Z,63.71
2018-08-03T07:56:28.637Z,63.91
2018-08-03T07:57:28.589Z,62.65
2018-08-03T07:58:28.561Z,62.55
2018-08-03T07:59:28.517Z,62.97
2018-08-03T08:00:28.525Z,62.97
2018-08-03T08:01:28.442Z,62.77
2018-08-03T08:02:28.410Z,62.58
2018-08-03T08:03:28.367Z,62.23
2018-08-03T08:04:28.334Z,61.15
2018-08-03T08:05:28.296Z,60.86
2018-08-03T08:06:28.265Z,60.02
2018-08-03T08:07:28.220Z,59.92
2018-08-03T08:08:28.185Z,59.72
2018-08-03T08:09:28.172Z,60.31
2018-08-03T08:10:28.124Z,59.27
2018-08-03T08:11:28.075Z,60.05
2018-08-03T08:12:28.040Z,58.78
2018-08-03T08:13:28.002Z,58.32
2018-08-03T08:14:27.968Z,57.15
2018-08-03T08:15:27.935Z,58.22
2018-08-03T08:16:27.893Z,57.64
2018-08-03T08:17:27.864Z,56.79
2018-08-03T08:18:27.823Z,57.67
2018-08-03T08:19:27.786Z,57.31
2018-08-03T08:20:27.750Z,56.82
2018-08-03T08:21:27.716Z,57.21
2018-08-03T08:22:27.683Z,56.62
2018-08-03T08:23:27.643Z,56.72
2018-08-03T08:24:27.606Z,55.19
2018-08-03T08:25:27.575Z,54.80
2018-08-03T08:26:27.573Z,54.70
2018-08-03T08:27:27.499Z,54.90
2018-08-03T08:28:27.463Z,54.44
2018-08-03T08:29:27.430Z,54.73
2018-08-03T08:30:27.394Z,54.73
2018-08-03T08:31:27.360Z,54.14
2018-08-03T08:32:27.320Z,54.34
2018-08-03T08:33:27.289Z,54.27
2018-08-03T08:34:27.250Z,52.61
2018-08-03T08:35:27.214Z,52.61
2018-08-03T08:36:27.186Z,52.73
2018-08-03T08:37:27.154Z,52.05
2018-08-03T08:38:27.114Z,52.34
2018-08-03T08:39:27.079Z,52.73
2018-08-03T08:40:27.044Z,52.44
2018-08-03T08:41:27.003Z,51.76
2018-08-03T08:42:26.972Z,51.86
2018-08-03T08:43:26.954Z,51.78
2018-08-03T08:44:26.898Z,51.88
2018-08-03T08:45:26.865Z,51.88
2018-08-03T08:46:26.834Z,51.59
2018-08-03T08:47:26.795Z,51.03
2018-08-03T08:48:26.762Z,50.83
2018-08-03T08:49:26.730Z,50.93
2018-08-03T08:50:26.688Z,50.34
2018-08-03T08:51:26.662Z,49.55
2018-08-03T08:52:26.619Z,49.75
2018-08-03T08:53:26.584Z,50.24
2018-08-03T08:54:26.554Z,49.26
2018-08-03T08:55:26.523Z,49.19
2018-08-03T08:56:26.487Z,49.68
2018-08-03T08:57:26.448Z,49.19
2018-08-03T08:58:26.416Z,50.07
2018-08-03T08:59:26.378Z,49.09
2018-08-03T09:00:26.343Z,49.11
2018-08-03T09:01:26.313Z,49.11
2018-08-03T09:02:26.278Z,49.90
2018-08-03T09:03:26.239Z,49.21
2018-08-03T09:04:26.206Z,48.72
2018-08-03T09:05:26.176Z,48.55
2018-08-03T09:06:26.137Z,48.36
2018-08-03T09:07:26.140Z,48.55
2018-08-03T09:08:26.069Z,48.85
2018-08-03T09:09:26.034Z,48.26
2018-08-03T09:10:25.999Z,48.07
2018-08-03T09:11:25.967Z,47.50
2018-08-03T09:12:25.934Z,48.28
2018-08-03T09:13:25.902Z,48.28
2018-08-03T09:14:25.872Z,46.62
2018-08-03T09:15:25.829Z,47.30
2018-08-03T09:16:25.799Z,46.84
2018-08-03T09:17:25.763Z,46.94
2018-08-03T09:18:25.750Z,46.84
2018-08-03T09:19:25.703Z,46.34
2018-08-03T09:20:25.662Z,45.47
2018-08-03T09:21:25.632Z,46.44
2018-08-03T09:22:25.594Z,46.34
2018-08-03T09:23:25.562Z,47.25
2018-08-03T09:24:25.551Z,46.37
2018-08-03T09:25:25.495Z,46.08
2018-08-03T09:26:25.460Z,45.19
2018-08-03T09:27:25.429Z,45.98
2018-08-03T09:28:25.442Z,46.59
2018-08-03T09:29:25.358Z,46.30
2018-08-03T09:30:25.326Z,45.12
2018-08-03T09:31:25.291Z,44.92
2018-08-03T09:32:25.263Z,45.21
2018-08-03T09:33:25.229Z,45.80
2018-08-03T09:34:25.190Z,45.90
2018-08-03T09:35:25.157Z,47.39
2018-08-03T09:36:25.148Z,45.14
2018-08-03T09:37:25.097Z,44.84
2018-08-03T09:38:25.057Z,45.24
2018-08-03T09:39:25.025Z,44.35
2018-08-03T09:40:24.995Z,44.16
2018-08-03T09:41:24.960Z,44.67
2018-08-03T09:42:24.925Z,44.96
2018-08-03T09:43:24.898Z,43.39
2018-08-03T09:44:24.859Z,43.49
2018-08-03T09:45:24.831Z,43.22
2018-08-03T09:46:24.794Z,43.32
2018-08-03T09:47:24.760Z,44.10
2018-08-03T09:48:24.732Z,43.63
2018-08-03T09:49:24.696Z,42.33
2018-08-03T09:50:24.665Z,42.25
2018-08-03T09:51:24.631Z,43.53
2018-08-03T09:52:24.598Z,42.75
2018-08-03T09:53:24.566Z,42.75
2018-08-03T09:54:24.541Z,41.77
2018-08-03T09:55:24.502Z,42.16
2018-08-03T09:56:24.465Z,43.14
2018-08-03T09:57:24.432Z,42.77
2018-08-03T09:58:24.402Z,42.08
2018-08-03T09:59:24.369Z,42.67
2018-08-03T10:00:24.335Z,42.18
2018-08-03T10:01:24.301Z,42.86
2018-08-03T10:02:24.273Z,43.06
2018-08-03T10:03:24.236Z,43.08
2018-08-03T10:04:24.205Z,42.20
2018-08-03T10:05:24.173Z,42.20
2018-08-03T10:06:24.145Z,42.30
2018-08-03T10:07:24.160Z,41.51
2018-08-03T10:08:24.075Z,40.53
2018-08-03T10:09:24.050Z,40.53
2018-08-03T10:10:24.008Z,41.11
2018-08-03T10:11:23.978Z,40.63
2018-08-03T10:12:23.957Z,40.72
2018-08-03T10:13:23.912Z,41.31
2018-08-03T10:14:23.879Z,42.32
2018-08-03T10:15:23.894Z,40.84
2018-08-03T10:16:23.823Z,40.45
2018-08-03T10:17:23.784Z,40.94
2018-08-03T10:18:23.751Z,40.37
2018-08-03T10:19:23.721Z,39.97
2018-08-03T10:20:23.688Z,40.86
2018-08-03T10:21:23.657Z,40.08
2018-08-03T10:22:23.654Z,40.76
2018-08-03T10:23:23.591Z,40.98
2018-08-03T10:24:23.562Z,40.39
2018-08-03T10:25:23.527Z,40.29
2018-08-03T10:26:23.500Z,40.00
2018-08-03T10:27:23.461Z,39.60
2018-08-03T10:28:23.434Z,39.20
2018-08-03T10:29:23.403Z,39.60
2018-08-03T10:30:23.402Z,39.89
2018-08-03T10:31:23.394Z,38.54
2018-08-03T10:32:23.318Z,38.43
2018-08-03T10:33:23.315Z,38.54
2018-08-03T10:34:23.281Z,38.83
2018-08-03T10:35:23.207Z,38.14
2018-08-03T10:36:23.175Z,38.75
2018-08-03T10:37:23.147Z,38.04
2018-08-03T10:38:23.136Z,37.66
2018-08-03T10:39:23.085Z,37.17
2018-08-03T10:40:23.051Z,37.66
2018-08-03T10:41:23.021Z,36.98
2018-08-03T10:42:22.987Z,36.78
2018-08-03T10:43:22.954Z,36.99
2018-08-03T10:44:22.924Z,36.21
2018-08-03T10:45:22.893Z,36.70
2018-08-03T10:46:22.863Z,36.90
2018-08-03T10:47:22.827Z,37.98
2018-08-03T10:48:22.799Z,38.00
2018-08-03T10:49:22.768Z,37.70
2018-08-03T10:50:22.734Z,37.21
2018-08-03T10:51:22.714Z,35.14
2018-08-03T10:52:22.672Z,35.35
2018-08-03T10:53:22.642Z,35.85
2018-08-03T10:54:22.613Z,36.93
2018-08-03T10:55:22.577Z,36.25
2018-08-03T10:56:22.551Z,35.37
2018-08-03T10:57:22.519Z,34.67
2018-08-03T10:58:22.551Z,34.28
2018-08-03T10:59:22.457Z,34.30
2018-08-03T11:00:22.424Z,34.10
2018-08-03T11:01:22.423Z,33.61
2018-08-03T11:02:22.360Z,33.61
2018-08-03T11:03:22.330Z,33.70
2018-08-03T11:04:22.300Z,33.42
2018-08-03T11:05:22.272Z,32.43
2018-08-03T11:06:22.237Z,31.15
2018-08-03T11:07:22.216Z,31.94
2018-08-03T11:08:22.183Z,33.33
2018-08-03T11:09:22.148Z,32.34
2018-08-03T11:10:22.118Z,32.85
2018-08-03T11:11:22.085Z,33.14
2018-08-03T11:12:22.053Z,33.64
2018-08-03T11:13:22.023Z,33.94
2018-08-03T11:14:21.996Z,34.23
2018-08-03T11:15:21.961Z,31.97
2018-08-03T11:16:21.932Z,31.97
2018-08-03T11:17:21.905Z,32.09
2018-08-03T11:18:21.881Z,32.09
2018-08-03T11:19:21.846Z,32.88
2018-08-03T11:20:21.814Z,32.30
2018-08-03T11:21:21.784Z,32.79
2018-08-03T11:22:21.748Z,32.20
2018-08-03T11:23:21.724Z,31.31
2018-08-03T11:24:21.752Z,30.73
2018-08-03T11:25:21.667Z,31.42
2018-08-03T11:26:21.644Z,30.73
2018-08-03T11:27:21.599Z,30.44
2018-08-03T11:28:21.589Z,30.94
2018-08-03T11:29:21.540Z,30.84
2018-08-03T11:30:21.510Z,30.35
2018-08-03T11:31:21.484Z,30.65
2018-08-03T11:32:21.448Z,30.35
2018-08-03T11:33:21.421Z,30.35
2018-08-03T11:34:21.393Z,30.55
2018-08-03T11:35:21.362Z,30.74
2018-08-03T11:36:21.332Z,30.25
2018-08-03T11:37:21.300Z,30.25
2018-08-03T11:38:21.268Z,30.35
2018-08-03T11:39:21.240Z,30.35
2018-08-03T11:40:21.213Z,31.05
2018-08-03T11:41:21.180Z,30.56
2018-08-03T11:42:21.152Z,31.05
2018-08-03T11:43:21.125Z,29.17
2018-08-03T11:44:21.094Z,29.86
2018-08-03T11:45:21.067Z,29.86
2018-08-03T11:46:21.040Z,29.67
2018-08-03T11:47:21.002Z,28.86
2018-08-03T11:48:21.044Z,27.97
2018-08-03T11:49:20.945Z,28.17
2018-08-03T11:50:20.914Z,28.05
2018-08-03T11:51:20.886Z,28.45
2018-08-03T11:52:20.857Z,29.23
2018-08-03T11:53:20.831Z,29.13
2018-08-03T11:54:20.796Z,30.41
2018-08-03T11:55:20.767Z,30.91
2018-08-03T11:56:20.736Z,30.22
2018-08-03T11:57:20.704Z,30.91
2018-08-03T11:58:20.676Z,30.81
2018-08-03T11:59:20.645Z,30.02
2018-08-03T12:00:20.618Z,29.92
2018-08-03T12:01:20.590Z,30.52
2018-08-03T12:02:20.556Z,30.91
2018-08-03T12:03:20.525Z,31.60
2018-08-03T12:04:20.496Z,30.41
2018-08-03T12:05:20.471Z,31.21
2018-08-03T12:06:20.441Z,30.91
2018-08-03T12:07:20.407Z,31.11
2018-08-03T12:08:20.376Z,30.80
2018-08-03T12:09:20.348Z,30.71
2018-08-03T12:10:20.314Z,30.62
2018-08-03T12:11:20.286Z,30.02
2018-08-03T12:12:20.291Z,29.74
2018-08-03T12:13:20.224Z,29.24
2018-08-03T12:14:20.197Z,29.04
2018-08-03T12:15:20.168Z,29.16
2018-08-03T12:16:20.139Z,28.18
2018-08-03T12:17:20.108Z,28.17
2018-08-03T12:18:20.077Z,27.39
2018-08-03T12:19:20.052Z,28.67
2018-08-03T12:20:20.019Z,27.88
2018-08-03T12:21:19.995Z,27.99
2018-08-03T12:22:20.566Z,28.09
2018-08-03T12:23:19.961Z,26.61
2018-08-03T12:24:19.895Z,27.01
2018-08-03T12:25:19.866Z,28.20
2018-08-03T12:26:19.837Z,26.03
2018-08-03T12:27:19.807Z,26.43
2018-08-03T12:28:19.782Z,26.15
2018-08-03T12:29:19.750Z,26.94
2018-08-03T12:30:19.719Z,26.16
2018-08-03T12:31:19.745Z,26.35
2018-08-03T12:32:19.664Z,26.27
2018-08-03T12:33:19.635Z,24.77
2018-08-03T12:34:19.603Z,24.79
2018-08-03T12:35:19.573Z,24.49
2018-08-03T12:36:19.548Z,24.09
2018-08-03T12:37:19.515Z,24.29
2018-08-03T12:38:19.484Z,23.50
2018-08-03T12:39:19.460Z,23.52
2018-08-03T12:40:19.426Z,23.52
2018-08-03T12:41:19.401Z,22.72
2018-08-03T12:42:19.368Z,23.63
2018-08-03T12:43:19.353Z,23.03
2018-08-03T12:44:19.317Z,22.94
2018-08-03T12:45:19.284Z,22.85
2018-08-03T12:46:19.256Z,21.97
2018-08-03T12:47:19.225Z,21.86
2018-08-03T12:48:19.196Z,21.97
2018-08-03T12:49:19.172Z,21.08
2018-08-03T12:50:19.140Z,22.38
2018-08-03T12:51:19.117Z,21.89
2018-08-03T12:52:19.083Z,19.89